sensor_id;sensor_type;location;lat;lon;timestamp;temperature;humidity
6662;DHT22;3367;48.714;8.994;2024-03-29T00:00:05;5.80;1.00
6662;DHT22;3367;48.714;8.994;2024-03-29T00:02:31;5.80;1.00
6662;DHT22;3367;48.714;8.994;2024-03-29T00:04:57;5.90;1.00
6662;DHT22;3367;48.714;8.994;2024-03-29T00:07:22;5.90;1.00
6662;DHT22;3367;48.714;8.994;2024-03-29T00:09:48;5.90;1.00
6662;DHT22;3367;48.714;8.994;2024-03-29T00:12:17;6.00;1.00
6662;DHT22;3367;48.714;8.994;2024-03-29T00:14:47;6.00;1.00
6662;DHT22;3367;48.714;8.994;2024-03-29T00:17:13;6.00;1.00
6662;DHT22;3367;48.714;8.994;2024-03-29T00:19:39;6.00;1.00
6662;DHT22;3367;48.714;8.994;2024-03-29T00:22:05;5.90;1.00
6662;DHT22;3367;48.714;8.994;2024-03-29T00:24:30;5.90;1.00
6662;DHT22;3367;48.714;8.994;2024-03-29T00:26:56;5.90;1.00
6662;DHT22;3367;48.714;8.994;2024-03-29T00:29:22;5.90;1.00
6662;DHT22;3367;48.714;8.994;2024-03-29T00:31:49;5.90;1.00
6662;DHT22;3367;48.714;8.994;2024-03-29T00:34:15;5.90;1.00
6662;DHT22;3367;48.714;8.994;2024-03-29T00:36:41;5.90;1.00
6662;DHT22;3367;48.714;8.994;2024-03-29T00:39:16;5.90;1.00
6662;DHT22;3367;48.714;8.994;2024-03-29T00:41:41;5.90;1.00
6662;DHT22;3367;48.714;8.994;2024-03-29T00:44:10;5.90;1.00
6662;DHT22;3367;48.714;8.994;2024-03-29T00:46:36;6.00;1.00
6662;DHT22;3367;48.714;8.994;2024-03-29T00:49:03;6.00;1.00
6662;DHT22;3367;48.714;8.994;2024-03-29T00:51:29;6.10;1.00
6662;DHT22;3367;48.714;8.994;2024-03-29T00:53:55;6.20;1.00
6662;DHT22;3367;48.714;8.994;2024-03-29T00:56:21;6.20;1.00
6662;DHT22;3367;48.714;8.994;2024-03-29T00:58:47;6.20;1.00
6662;DHT22;3367;48.714;8.994;2024-03-29T01:01:12;6.20;1.00
6662;DHT22;3367;48.714;8.994;2024-03-29T01:03:41;6.40;1.00
6662;DHT22;3367;48.714;8.994;2024-03-29T01:06:08;6.20;1.00
6662;DHT22;3367;48.714;8.994;2024-03-29T01:08:37;6.30;1.00
6662;DHT22;3367;48.714;8.994;2024-03-29T01:11:03;6.20;1.00
6662;DHT22;3367;48.714;8.994;2024-03-29T01:13:29;6.30;1.00
6662;DHT22;3367;48.714;8.994;2024-03-29T01:15:55;6.20;1.00
6662;DHT22;3367;48.714;8.994;2024-03-29T01:18:21;6.20;1.00
6662;DHT22;3367;48.714;8.994;2024-03-29T01:20:49;6.20;1.00
6662;DHT22;3367;48.714;8.994;2024-03-29T01:23:16;6.20;1.00
6662;DHT22;3367;48.714;8.994;2024-03-29T01:25:42;6.20;1.00
6662;DHT22;3367;48.714;8.994;2024-03-29T01:28:08;6.10;1.00
6662;DHT22;3367;48.714;8.994;2024-03-29T01:30:34;6.10;1.00
6662;DHT22;3367;48.714;8.994;2024-03-29T01:33:03;6.00;1.00
6662;DHT22;3367;48.714;8.994;2024-03-29T01:35:38;6.00;1.00
6662;DHT22;3367;48.714;8.994;2024-03-29T01:38:14;5.90;1.00
6662;DHT22;3367;48.714;8.994;2024-03-29T01:40:44;5.80;1.00
6662;DHT22;3367;48.714;8.994;2024-03-29T01:43:13;5.80;1.00
6662;DHT22;3367;48.714;8.994;2024-03-29T01:45:42;5.80;1.00
6662;DHT22;3367;48.714;8.994;2024-03-29T01:48:11;5.80;1.00
6662;DHT22;3367;48.714;8.994;2024-03-29T01:50:41;5.80;1.00
6662;DHT22;3367;48.714;8.994;2024-03-29T01:53:11;5.80;1.00
6662;DHT22;3367;48.714;8.994;2024-03-29T01:55:41;5.80;1.00
6662;DHT22;3367;48.714;8.994;2024-03-29T01:58:14;5.80;1.00
6662;DHT22;3367;48.714;8.994;2024-03-29T02:00:44;5.70;1.00
6662;DHT22;3367;48.714;8.994;2024-03-29T02:03:16;5.70;1.00
6662;DHT22;3367;48.714;8.994;2024-03-29T02:05:49;5.70;1.00
6662;DHT22;3367;48.714;8.994;2024-03-29T02:08:29;5.70;1.00
6662;DHT22;3367;48.714;8.994;2024-03-29T02:10:55;5.70;1.00
6662;DHT22;3367;48.714;8.994;2024-03-29T02:13:24;5.70;1.00
6662;DHT22;3367;48.714;8.994;2024-03-29T02:15:51;5.80;1.00
6662;DHT22;3367;48.714;8.994;2024-03-29T02:18:20;5.80;1.00
6662;DHT22;3367;48.714;8.994;2024-03-29T02:20:47;5.90;1.00
6662;DHT22;3367;48.714;8.994;2024-03-29T02:23:17;5.90;1.00
6662;DHT22;3367;48.714;8.994;2024-03-29T02:25:54;6.00;1.00
6662;DHT22;3367;48.714;8.994;2024-03-29T02:28:25;6.10;1.00
6662;DHT22;3367;48.714;8.994;2024-03-29T02:30:52;6.10;1.00
6662;DHT22;3367;48.714;8.994;2024-03-29T02:33:22;6.10;1.00
6662;DHT22;3367;48.714;8.994;2024-03-29T02:35:50;6.20;1.00
6662;DHT22;3367;48.714;8.994;2024-03-29T02:38:17;6.20;1.00
6662;DHT22;3367;48.714;8.994;2024-03-29T02:40:43;6.30;1.00
6662;DHT22;3367;48.714;8.994;2024-03-29T02:43:14;6.30;1.00
6662;DHT22;3367;48.714;8.994;2024-03-29T02:45:41;6.20;1.00
6662;DHT22;3367;48.714;8.994;2024-03-29T02:48:07;6.20;1.00
6662;DHT22;3367;48.714;8.994;2024-03-29T02:50:36;6.20;1.00
6662;DHT22;3367;48.714;8.994;2024-03-29T02:53:09;6.20;1.00
6662;DHT22;3367;48.714;8.994;2024-03-29T02:55:35;6.20;1.00
6662;DHT22;3367;48.714;8.994;2024-03-29T02:58:01;6.20;1.00
6662;DHT22;3367;48.714;8.994;2024-03-29T03:00:29;6.20;1.00
6662;DHT22;3367;48.714;8.994;2024-03-29T03:02:55;6.10;1.00
6662;DHT22;3367;48.714;8.994;2024-03-29T03:05:21;6.10;1.00
6662;DHT22;3367;48.714;8.994;2024-03-29T03:07:50;6.10;1.00
6662;DHT22;3367;48.714;8.994;2024-03-29T03:10:34;6.10;1.00
6662;DHT22;3367;48.714;8.994;2024-03-29T03:13:21;6.10;1.00
6662;DHT22;3367;48.714;8.994;2024-03-29T03:15:55;6.20;1.00
6662;DHT22;3367;48.714;8.994;2024-03-29T03:18:25;6.20;1.00
6662;DHT22;3367;48.714;8.994;2024-03-29T03:20:52;6.20;1.00
6662;DHT22;3367;48.714;8.994;2024-03-29T03:23:19;6.30;1.00
6662;DHT22;3367;48.714;8.994;2024-03-29T03:25:46;6.40;1.00
6662;DHT22;3367;48.714;8.994;2024-03-29T03:28:13;6.30;1.00
6662;DHT22;3367;48.714;8.994;2024-03-29T03:30:50;6.20;1.00
6662;DHT22;3367;48.714;8.994;2024-03-29T03:33:18;6.00;1.00
6662;DHT22;3367;48.714;8.994;2024-03-29T03:35:45;6.00;1.00
6662;DHT22;3367;48.714;8.994;2024-03-29T03:38:11;5.90;1.00
6662;DHT22;3367;48.714;8.994;2024-03-29T03:40:38;5.80;1.00
6662;DHT22;3367;48.714;8.994;2024-03-29T03:43:05;5.80;1.00
6662;DHT22;3367;48.714;8.994;2024-03-29T03:45:34;5.90;1.00
6662;DHT22;3367;48.714;8.994;2024-03-29T03:47:59;6.00;1.00
6662;DHT22;3367;48.714;8.994;2024-03-29T03:50:27;6.10;1.00
6662;DHT22;3367;48.714;8.994;2024-03-29T03:52:56;6.10;1.00
6662;DHT22;3367;48.714;8.994;2024-03-29T03:55:23;6.20;1.00
6662;DHT22;3367;48.714;8.994;2024-03-29T03:57:52;6.30;1.00
6662;DHT22;3367;48.714;8.994;2024-03-29T04:00:29;6.40;1.00
6662;DHT22;3367;48.714;8.994;2024-03-29T04:02:57;6.40;1.00
6662;DHT22;3367;48.714;8.994;2024-03-29T04:05:28;6.40;1.00
6662;DHT22;3367;48.714;8.994;2024-03-29T04:07:57;6.50;1.00
6662;DHT22;3367;48.714;8.994;2024-03-29T04:10:25;6.50;1.00
6662;DHT22;3367;48.714;8.994;2024-03-29T04:12:51;6.50;1.00
6662;DHT22;3367;48.714;8.994;2024-03-29T04:15:25;6.60;1.00
6662;DHT22;3367;48.714;8.994;2024-03-29T04:17:50;6.60;1.00
6662;DHT22;3367;48.714;8.994;2024-03-29T04:20:17;6.60;1.00
6662;DHT22;3367;48.714;8.994;2024-03-29T04:22:57;6.70;1.00
6662;DHT22;3367;48.714;8.994;2024-03-29T04:25:27;6.70;1.00
6662;DHT22;3367;48.714;8.994;2024-03-29T04:27:53;6.90;1.00
6662;DHT22;3367;48.714;8.994;2024-03-29T04:30:20;6.90;1.00
6662;DHT22;3367;48.714;8.994;2024-03-29T04:32:46;6.90;1.00
6662;DHT22;3367;48.714;8.994;2024-03-29T04:35:13;6.90;1.00
6662;DHT22;3367;48.714;8.994;2024-03-29T04:37:42;6.90;1.00
6662;DHT22;3367;48.714;8.994;2024-03-29T04:40:16;6.80;1.00
6662;DHT22;3367;48.714;8.994;2024-03-29T04:42:46;6.70;1.00
6662;DHT22;3367;48.714;8.994;2024-03-29T04:45:16;6.60;1.00
6662;DHT22;3367;48.714;8.994;2024-03-29T04:47:42;6.50;1.00
6662;DHT22;3367;48.714;8.994;2024-03-29T04:50:09;6.50;1.00
6662;DHT22;3367;48.714;8.994;2024-03-29T04:52:39;6.50;1.00
6662;DHT22;3367;48.714;8.994;2024-03-29T04:55:08;6.40;1.00
6662;DHT22;3367;48.714;8.994;2024-03-29T04:57:42;6.30;1.00
6662;DHT22;3367;48.714;8.994;2024-03-29T05:00:15;6.30;1.00
6662;DHT22;3367;48.714;8.994;2024-03-29T05:02:42;6.40;1.00
6662;DHT22;3367;48.714;8.994;2024-03-29T05:05:11;6.40;1.00
6662;DHT22;3367;48.714;8.994;2024-03-29T05:07:52;6.40;1.00
6662;DHT22;3367;48.714;8.994;2024-03-29T05:10:18;6.40;1.00
6662;DHT22;3367;48.714;8.994;2024-03-29T05:13:01;6.30;1.00
6662;DHT22;3367;48.714;8.994;2024-03-29T05:15:28;6.30;1.00
6662;DHT22;3367;48.714;8.994;2024-03-29T05:17:55;6.30;1.00
6662;DHT22;3367;48.714;8.994;2024-03-29T05:20:22;6.30;1.00
6662;DHT22;3367;48.714;8.994;2024-03-29T05:22:49;6.30;1.00
6662;DHT22;3367;48.714;8.994;2024-03-29T05:25:16;6.30;1.00
6662;DHT22;3367;48.714;8.994;2024-03-29T05:27:42;6.30;1.00
6662;DHT22;3367;48.714;8.994;2024-03-29T05:30:14;6.30;1.00
6662;DHT22;3367;48.714;8.994;2024-03-29T05:32:41;6.40;1.00
6662;DHT22;3367;48.714;8.994;2024-03-29T05:35:09;6.40;1.00
6662;DHT22;3367;48.714;8.994;2024-03-29T05:37:36;6.50;1.00
6662;DHT22;3367;48.714;8.994;2024-03-29T05:40:04;6.50;1.00
6662;DHT22;3367;48.714;8.994;2024-03-29T05:42:35;6.60;1.00
6662;DHT22;3367;48.714;8.994;2024-03-29T05:45:04;6.70;1.00
6662;DHT22;3367;48.714;8.994;2024-03-29T05:47:35;6.70;1.00
6662;DHT22;3367;48.714;8.994;2024-03-29T05:50:09;6.80;1.00
6662;DHT22;3367;48.714;8.994;2024-03-29T05:52:39;7.00;1.00
6662;DHT22;3367;48.714;8.994;2024-03-29T05:55:08;6.90;1.00
6662;DHT22;3367;48.714;8.994;2024-03-29T05:57:35;6.90;1.00
6662;DHT22;3367;48.714;8.994;2024-03-29T06:00:07;7.00;1.00
6662;DHT22;3367;48.714;8.994;2024-03-29T06:02:37;7.10;1.00
6662;DHT22;3367;48.714;8.994;2024-03-29T06:05:07;7.20;1.00
6662;DHT22;3367;48.714;8.994;2024-03-29T06:07:34;7.30;1.00
6662;DHT22;3367;48.714;8.994;2024-03-29T06:10:03;7.40;1.00
6662;DHT22;3367;48.714;8.994;2024-03-29T06:12:42;7.60;1.00
6662;DHT22;3367;48.714;8.994;2024-03-29T06:15:09;8.10;1.00
6662;DHT22;3367;48.714;8.994;2024-03-29T06:17:57;8.30;1.00
6662;DHT22;3367;48.714;8.994;2024-03-29T06:20:30;8.50;1.00
6662;DHT22;3367;48.714;8.994;2024-03-29T06:23:00;8.40;1.00
6662;DHT22;3367;48.714;8.994;2024-03-29T06:25:32;8.30;1.00
6662;DHT22;3367;48.714;8.994;2024-03-29T06:27:59;8.20;1.00
6662;DHT22;3367;48.714;8.994;2024-03-29T06:30:26;8.20;1.00
6662;DHT22;3367;48.714;8.994;2024-03-29T06:32:58;8.30;1.00
6662;DHT22;3367;48.714;8.994;2024-03-29T06:35:31;8.40;1.00
6662;DHT22;3367;48.714;8.994;2024-03-29T06:38:00;8.50;1.00
6662;DHT22;3367;48.714;8.994;2024-03-29T06:40:30;8.60;1.00
6662;DHT22;3367;48.714;8.994;2024-03-29T06:42:59;8.70;1.00
6662;DHT22;3367;48.714;8.994;2024-03-29T06:45:31;8.80;1.00
6662;DHT22;3367;48.714;8.994;2024-03-29T06:47:59;8.90;1.00
6662;DHT22;3367;48.714;8.994;2024-03-29T06:50:26;8.90;1.00
6662;DHT22;3367;48.714;8.994;2024-03-29T06:52:52;9.00;1.00
6662;DHT22;3367;48.714;8.994;2024-03-29T06:55:20;8.80;1.00
6662;DHT22;3367;48.714;8.994;2024-03-29T06:57:50;8.90;1.00
6662;DHT22;3367;48.714;8.994;2024-03-29T07:00:17;8.80;1.00
6662;DHT22;3367;48.714;8.994;2024-03-29T07:02:44;8.80;1.00
6662;DHT22;3367;48.714;8.994;2024-03-29T07:05:12;8.60;1.00
6662;DHT22;3367;48.714;8.994;2024-03-29T07:07:42;8.70;1.00
6662;DHT22;3367;48.714;8.994;2024-03-29T07:10:15;8.60;1.00
6662;DHT22;3367;48.714;8.994;2024-03-29T07:12:51;8.50;1.00
6662;DHT22;3367;48.714;8.994;2024-03-29T07:15:27;8.40;1.00
6662;DHT22;3367;48.714;8.994;2024-03-29T07:17:54;8.50;1.00
6662;DHT22;3367;48.714;8.994;2024-03-29T07:20:23;8.30;1.00
6662;DHT22;3367;48.714;8.994;2024-03-29T07:22:53;8.30;1.00
6662;DHT22;3367;48.714;8.994;2024-03-29T07:25:20;8.20;1.00
6662;DHT22;3367;48.714;8.994;2024-03-29T07:27:47;8.20;1.00
6662;DHT22;3367;48.714;8.994;2024-03-29T07:30:15;8.20;1.00
6662;DHT22;3367;48.714;8.994;2024-03-29T07:32:54;8.10;1.00
6662;DHT22;3367;48.714;8.994;2024-03-29T07:35:22;8.00;1.00
6662;DHT22;3367;48.714;8.994;2024-03-29T07:37:52;7.90;1.00
6662;DHT22;3367;48.714;8.994;2024-03-29T07:40:21;7.80;80.60
6662;DHT22;3367;48.714;8.994;2024-03-29T07:42:50;7.70;57.70
6662;DHT22;3367;48.714;8.994;2024-03-29T07:45:19;7.70;92.30
6662;DHT22;3367;48.714;8.994;2024-03-29T07:47:45;7.70;99.90
6662;DHT22;3367;48.714;8.994;2024-03-29T07:50:25;7.60;99.90
6662;DHT22;3367;48.714;8.994;2024-03-29T07:52:52;7.60;99.90
6662;DHT22;3367;48.714;8.994;2024-03-29T07:55:18;7.50;99.90
6662;DHT22;3367;48.714;8.994;2024-03-29T07:57:45;7.50;99.90
6662;DHT22;3367;48.714;8.994;2024-03-29T08:00:13;7.50;99.90
6662;DHT22;3367;48.714;8.994;2024-03-29T08:02:43;7.50;99.90
6662;DHT22;3367;48.714;8.994;2024-03-29T08:05:14;7.50;99.90
6662;DHT22;3367;48.714;8.994;2024-03-29T08:07:42;7.60;99.90
6662;DHT22;3367;48.714;8.994;2024-03-29T08:10:10;7.70;99.90
6662;DHT22;3367;48.714;8.994;2024-03-29T08:12:36;7.80;99.90
6662;DHT22;3367;48.714;8.994;2024-03-29T08:15:03;7.70;1.00
6662;DHT22;3367;48.714;8.994;2024-03-29T08:17:30;7.90;1.00
6662;DHT22;3367;48.714;8.994;2024-03-29T08:19:57;7.90;1.00
6662;DHT22;3367;48.714;8.994;2024-03-29T08:22:24;7.90;1.00
6662;DHT22;3367;48.714;8.994;2024-03-29T08:24:52;8.00;1.00
6662;DHT22;3367;48.714;8.994;2024-03-29T08:27:18;7.90;1.00
6662;DHT22;3367;48.714;8.994;2024-03-29T08:29:45;8.00;1.00
6662;DHT22;3367;48.714;8.994;2024-03-29T08:32:12;7.90;1.00
6662;DHT22;3367;48.714;8.994;2024-03-29T08:34:39;7.90;1.00
6662;DHT22;3367;48.714;8.994;2024-03-29T08:37:05;8.00;1.00
6662;DHT22;3367;48.714;8.994;2024-03-29T08:39:32;8.00;1.00
6662;DHT22;3367;48.714;8.994;2024-03-29T08:42:01;8.10;1.00
6662;DHT22;3367;48.714;8.994;2024-03-29T08:44:30;8.10;1.00
6662;DHT22;3367;48.714;8.994;2024-03-29T08:46:57;8.10;11.40
6662;DHT22;3367;48.714;8.994;2024-03-29T08:49:24;8.10;1.00
6662;DHT22;3367;48.714;8.994;2024-03-29T08:51:51;8.20;1.00
6662;DHT22;3367;48.714;8.994;2024-03-29T08:54:18;8.20;1.00
6662;DHT22;3367;48.714;8.994;2024-03-29T08:56:45;8.20;1.00
6662;DHT22;3367;48.714;8.994;2024-03-29T08:59:13;8.30;1.00
6662;DHT22;3367;48.714;8.994;2024-03-29T09:01:43;8.40;1.00
6662;DHT22;3367;48.714;8.994;2024-03-29T09:04:10;8.50;1.00
6662;DHT22;3367;48.714;8.994;2024-03-29T09:06:38;8.40;1.00
6662;DHT22;3367;48.714;8.994;2024-03-29T09:09:04;8.40;1.00
6662;DHT22;3367;48.714;8.994;2024-03-29T09:11:31;8.40;1.00
6662;DHT22;3367;48.714;8.994;2024-03-29T09:13:58;8.50;1.00
6662;DHT22;3367;48.714;8.994;2024-03-29T09:16:28;8.60;1.00
6662;DHT22;3367;48.714;8.994;2024-03-29T09:18:56;8.60;1.00
6662;DHT22;3367;48.714;8.994;2024-03-29T09:21:23;8.70;7.50
6662;DHT22;3367;48.714;8.994;2024-03-29T09:23:49;8.70;22.90
6662;DHT22;3367;48.714;8.994;2024-03-29T09:26:18;8.70;99.90
6662;DHT22;3367;48.714;8.994;2024-03-29T09:28:45;8.70;1.00
6662;DHT22;3367;48.714;8.994;2024-03-29T09:31:12;8.80;99.90
6662;DHT22;3367;48.714;8.994;2024-03-29T09:33:40;8.80;99.90
6662;DHT22;3367;48.714;8.994;2024-03-29T09:36:08;8.80;99.90
6662;DHT22;3367;48.714;8.994;2024-03-29T09:38:36;8.80;1.00
6662;DHT22;3367;48.714;8.994;2024-03-29T09:41:15;9.00;1.00
6662;DHT22;3367;48.714;8.994;2024-03-29T09:43:42;9.00;99.90
6662;DHT22;3367;48.714;8.994;2024-03-29T09:46:10;9.10;99.90
6662;DHT22;3367;48.714;8.994;2024-03-29T09:48:40;9.30;99.90
6662;DHT22;3367;48.714;8.994;2024-03-29T09:51:07;9.30;18.00
6662;DHT22;3367;48.714;8.994;2024-03-29T09:53:37;9.50;1.00
6662;DHT22;3367;48.714;8.994;2024-03-29T09:56:04;9.70;16.00
6662;DHT22;3367;48.714;8.994;2024-03-29T09:58:31;9.80;1.00
6662;DHT22;3367;48.714;8.994;2024-03-29T10:00:58;9.90;1.00
6662;DHT22;3367;48.714;8.994;2024-03-29T10:03:25;10.20;1.00
6662;DHT22;3367;48.714;8.994;2024-03-29T10:05:56;10.30;1.00
6662;DHT22;3367;48.714;8.994;2024-03-29T10:08:25;10.50;1.00
6662;DHT22;3367;48.714;8.994;2024-03-29T10:10:52;10.70;1.00
6662;DHT22;3367;48.714;8.994;2024-03-29T10:13:20;10.90;1.00
6662;DHT22;3367;48.714;8.994;2024-03-29T10:15:49;11.20;99.90
6662;DHT22;3367;48.714;8.994;2024-03-29T10:18:16;11.40;99.90
6662;DHT22;3367;48.714;8.994;2024-03-29T10:20:43;11.60;1.00
6662;DHT22;3367;48.714;8.994;2024-03-29T10:23:11;11.70;1.00
6662;DHT22;3367;48.714;8.994;2024-03-29T10:25:38;11.80;1.00
6662;DHT22;3367;48.714;8.994;2024-03-29T10:28:05;12.10;1.00
6662;DHT22;3367;48.714;8.994;2024-03-29T10:30:33;12.30;1.00
6662;DHT22;3367;48.714;8.994;2024-03-29T10:33:00;12.40;1.00
6662;DHT22;3367;48.714;8.994;2024-03-29T10:35:27;12.60;1.00
6662;DHT22;3367;48.714;8.994;2024-03-29T10:37:54;12.80;1.00
6662;DHT22;3367;48.714;8.994;2024-03-29T10:40:22;12.90;1.00
6662;DHT22;3367;48.714;8.994;2024-03-29T10:42:52;13.10;99.90
6662;DHT22;3367;48.714;8.994;2024-03-29T10:45:20;13.20;79.30
6662;DHT22;3367;48.714;8.994;2024-03-29T10:47:47;13.20;1.00
6662;DHT22;3367;48.714;8.994;2024-03-29T10:50:17;13.10;1.00
6662;DHT22;3367;48.714;8.994;2024-03-29T10:52:47;13.10;1.00
6662;DHT22;3367;48.714;8.994;2024-03-29T10:55:14;13.40;65.10
6662;DHT22;3367;48.714;8.994;2024-03-29T10:57:42;13.60;1.00
6662;DHT22;3367;48.714;8.994;2024-03-29T11:00:12;13.70;1.00
6662;DHT22;3367;48.714;8.994;2024-03-29T11:02:48;13.70;1.00
6662;DHT22;3367;48.714;8.994;2024-03-29T11:05:16;13.70;1.00
6662;DHT22;3367;48.714;8.994;2024-03-29T11:07:45;13.70;1.00
6662;DHT22;3367;48.714;8.994;2024-03-29T11:10:15;13.80;1.00
6662;DHT22;3367;48.714;8.994;2024-03-29T11:12:53;13.90;1.00
6662;DHT22;3367;48.714;8.994;2024-03-29T11:15:30;14.00;1.00
6662;DHT22;3367;48.714;8.994;2024-03-29T11:17:57;14.10;1.00
6662;DHT22;3367;48.714;8.994;2024-03-29T11:20:26;14.10;1.00
6662;DHT22;3367;48.714;8.994;2024-03-29T11:23:02;14.20;1.00
6662;DHT22;3367;48.714;8.994;2024-03-29T11:25:42;14.30;1.00
6662;DHT22;3367;48.714;8.994;2024-03-29T11:28:12;14.40;1.00
6662;DHT22;3367;48.714;8.994;2024-03-29T11:30:42;14.50;1.00
6662;DHT22;3367;48.714;8.994;2024-03-29T11:33:35;14.60;1.00
6662;DHT22;3367;48.714;8.994;2024-03-29T11:36:10;14.50;1.00
6662;DHT22;3367;48.714;8.994;2024-03-29T11:38:40;14.60;1.00
6662;DHT22;3367;48.714;8.994;2024-03-29T11:41:12;14.70;1.00
6662;DHT22;3367;48.714;8.994;2024-03-29T11:43:47;14.90;1.00
6662;DHT22;3367;48.714;8.994;2024-03-29T11:46:14;15.00;1.00
6662;DHT22;3367;48.714;8.994;2024-03-29T11:48:48;15.00;1.00
6662;DHT22;3367;48.714;8.994;2024-03-29T11:51:16;15.10;1.00
6662;DHT22;3367;48.714;8.994;2024-03-29T11:53:44;15.10;1.00
6662;DHT22;3367;48.714;8.994;2024-03-29T11:56:11;15.10;1.00
6662;DHT22;3367;48.714;8.994;2024-03-29T11:58:39;15.00;1.00
6662;DHT22;3367;48.714;8.994;2024-03-29T12:01:10;15.10;1.00
6662;DHT22;3367;48.714;8.994;2024-03-29T12:03:43;15.10;1.00
6662;DHT22;3367;48.714;8.994;2024-03-29T12:06:10;15.00;1.00
6662;DHT22;3367;48.714;8.994;2024-03-29T12:08:40;14.90;1.00
6662;DHT22;3367;48.714;8.994;2024-03-29T12:11:08;14.90;1.00
6662;DHT22;3367;48.714;8.994;2024-03-29T12:13:35;15.00;1.00
6662;DHT22;3367;48.714;8.994;2024-03-29T12:16:12;15.10;1.00
6662;DHT22;3367;48.714;8.994;2024-03-29T12:18:39;15.40;1.00
6662;DHT22;3367;48.714;8.994;2024-03-29T12:21:05;15.50;1.00
6662;DHT22;3367;48.714;8.994;2024-03-29T12:23:32;15.60;1.00
6662;DHT22;3367;48.714;8.994;2024-03-29T12:25:59;15.40;1.00
6662;DHT22;3367;48.714;8.994;2024-03-29T12:28:28;15.20;1.00
6662;DHT22;3367;48.714;8.994;2024-03-29T12:30:59;15.20;1.00
6662;DHT22;3367;48.714;8.994;2024-03-29T12:33:28;15.30;1.00
6662;DHT22;3367;48.714;8.994;2024-03-29T12:35:57;15.50;1.00
6662;DHT22;3367;48.714;8.994;2024-03-29T12:38:24;15.60;1.00
6662;DHT22;3367;48.714;8.994;2024-03-29T12:40:53;15.60;1.00
6662;DHT22;3367;48.714;8.994;2024-03-29T12:43:22;15.80;1.00
6662;DHT22;3367;48.714;8.994;2024-03-29T12:45:50;15.80;1.00
6662;DHT22;3367;48.714;8.994;2024-03-29T12:48:21;15.90;1.00
6662;DHT22;3367;48.714;8.994;2024-03-29T12:50:50;15.90;1.00
6662;DHT22;3367;48.714;8.994;2024-03-29T12:53:17;15.70;1.00
6662;DHT22;3367;48.714;8.994;2024-03-29T12:55:51;15.70;1.00
6662;DHT22;3367;48.714;8.994;2024-03-29T12:58:20;15.60;1.00
6662;DHT22;3367;48.714;8.994;2024-03-29T13:00:51;15.80;1.00
6662;DHT22;3367;48.714;8.994;2024-03-29T13:03:18;15.90;1.00
6662;DHT22;3367;48.714;8.994;2024-03-29T13:05:54;15.90;1.00
6662;DHT22;3367;48.714;8.994;2024-03-29T13:08:24;16.10;1.00
6662;DHT22;3367;48.714;8.994;2024-03-29T13:10:51;16.30;1.00
6662;DHT22;3367;48.714;8.994;2024-03-29T13:13:23;16.10;1.00
6662;DHT22;3367;48.714;8.994;2024-03-29T13:15:50;16.30;1.00
6662;DHT22;3367;48.714;8.994;2024-03-29T13:18:17;16.20;1.00
6662;DHT22;3367;48.714;8.994;2024-03-29T13:20:47;16.30;1.00
6662;DHT22;3367;48.714;8.994;2024-03-29T13:23:15;16.20;1.00
6662;DHT22;3367;48.714;8.994;2024-03-29T13:25:48;16.30;1.00
6662;DHT22;3367;48.714;8.994;2024-03-29T13:28:14;16.20;1.00
6662;DHT22;3367;48.714;8.994;2024-03-29T13:30:47;16.20;1.00
6662;DHT22;3367;48.714;8.994;2024-03-29T13:33:17;16.30;1.00
6662;DHT22;3367;48.714;8.994;2024-03-29T13:35:44;16.30;1.00
6662;DHT22;3367;48.714;8.994;2024-03-29T13:38:11;16.30;1.00
6662;DHT22;3367;48.714;8.994;2024-03-29T13:40:39;16.30;1.00
6662;DHT22;3367;48.714;8.994;2024-03-29T13:43:12;16.60;1.00
6662;DHT22;3367;48.714;8.994;2024-03-29T13:45:38;16.70;1.00
6662;DHT22;3367;48.714;8.994;2024-03-29T13:48:10;16.80;1.00
6662;DHT22;3367;48.714;8.994;2024-03-29T13:50:37;16.60;1.00
6662;DHT22;3367;48.714;8.994;2024-03-29T13:53:04;16.50;1.00
6662;DHT22;3367;48.714;8.994;2024-03-29T13:55:30;16.50;1.00
6662;DHT22;3367;48.714;8.994;2024-03-29T13:57:58;16.60;1.00
6662;DHT22;3367;48.714;8.994;2024-03-29T14:00:28;16.60;1.00
6662;DHT22;3367;48.714;8.994;2024-03-29T14:02:55;16.70;1.00
6662;DHT22;3367;48.714;8.994;2024-03-29T14:05:21;16.70;1.00
6662;DHT22;3367;48.714;8.994;2024-03-29T14:07:54;16.70;1.00
6662;DHT22;3367;48.714;8.994;2024-03-29T14:10:24;16.70;1.00
6662;DHT22;3367;48.714;8.994;2024-03-29T14:13:07;16.60;1.00
6662;DHT22;3367;48.714;8.994;2024-03-29T14:15:34;16.60;1.00
6662;DHT22;3367;48.714;8.994;2024-03-29T14:18:07;16.60;1.00
6662;DHT22;3367;48.714;8.994;2024-03-29T14:20:40;16.50;1.00
6662;DHT22;3367;48.714;8.994;2024-03-29T14:23:09;16.40;1.00
6662;DHT22;3367;48.714;8.994;2024-03-29T14:25:42;16.60;1.00
6662;DHT22;3367;48.714;8.994;2024-03-29T14:28:11;16.60;1.00
6662;DHT22;3367;48.714;8.994;2024-03-29T14:30:38;16.50;1.00
6662;DHT22;3367;48.714;8.994;2024-03-29T14:33:10;16.60;1.00
6662;DHT22;3367;48.714;8.994;2024-03-29T14:35:42;16.50;1.00
6662;DHT22;3367;48.714;8.994;2024-03-29T14:38:09;16.50;1.00
6662;DHT22;3367;48.714;8.994;2024-03-29T14:40:38;16.60;1.00
6662;DHT22;3367;48.714;8.994;2024-03-29T14:43:12;16.50;1.00
6662;DHT22;3367;48.714;8.994;2024-03-29T14:45:42;16.50;1.00
6662;DHT22;3367;48.714;8.994;2024-03-29T14:48:12;16.70;1.00
6662;DHT22;3367;48.714;8.994;2024-03-29T14:50:45;16.60;1.00
6662;DHT22;3367;48.714;8.994;2024-03-29T14:53:11;16.50;1.00
6662;DHT22;3367;48.714;8.994;2024-03-29T14:55:41;16.40;1.00
6662;DHT22;3367;48.714;8.994;2024-03-29T14:58:08;16.40;1.00
6662;DHT22;3367;48.714;8.994;2024-03-29T15:00:35;16.40;1.00
6662;DHT22;3367;48.714;8.994;2024-03-29T15:03:01;16.40;1.00
6662;DHT22;3367;48.714;8.994;2024-03-29T15:05:28;16.40;1.00
6662;DHT22;3367;48.714;8.994;2024-03-29T15:07:57;16.50;1.00
6662;DHT22;3367;48.714;8.994;2024-03-29T15:10:26;16.60;1.00
6662;DHT22;3367;48.714;8.994;2024-03-29T15:12:53;16.70;1.00
6662;DHT22;3367;48.714;8.994;2024-03-29T15:15:20;16.70;1.00
6662;DHT22;3367;48.714;8.994;2024-03-29T15:18:02;16.70;1.00
6662;DHT22;3367;48.714;8.994;2024-03-29T15:20:31;16.70;1.00
6662;DHT22;3367;48.714;8.994;2024-03-29T15:23:00;16.80;1.00
6662;DHT22;3367;48.714;8.994;2024-03-29T15:25:26;16.70;1.00
6662;DHT22;3367;48.714;8.994;2024-03-29T15:27:56;16.50;1.00
6662;DHT22;3367;48.714;8.994;2024-03-29T15:30:43;16.40;1.00
6662;DHT22;3367;48.714;8.994;2024-03-29T15:33:23;16.30;1.00
6662;DHT22;3367;48.714;8.994;2024-03-29T15:35:54;16.20;1.00
6662;DHT22;3367;48.714;8.994;2024-03-29T15:38:27;16.10;1.00
6662;DHT22;3367;48.714;8.994;2024-03-29T15:40:58;16.10;1.00
6662;DHT22;3367;48.714;8.994;2024-03-29T15:43:26;16.10;1.00
6662;DHT22;3367;48.714;8.994;2024-03-29T15:45:53;16.00;1.00
6662;DHT22;3367;48.714;8.994;2024-03-29T15:48:22;16.00;1.00
6662;DHT22;3367;48.714;8.994;2024-03-29T15:50:49;15.90;1.00
6662;DHT22;3367;48.714;8.994;2024-03-29T15:53:16;15.90;1.00
6662;DHT22;3367;48.714;8.994;2024-03-29T15:55:42;15.90;1.00
6662;DHT22;3367;48.714;8.994;2024-03-29T15:58:15;16.00;1.00
6662;DHT22;3367;48.714;8.994;2024-03-29T16:00:45;16.00;1.00
6662;DHT22;3367;48.714;8.994;2024-03-29T16:03:17;16.00;1.00
6662;DHT22;3367;48.714;8.994;2024-03-29T16:05:46;16.00;1.00
6662;DHT22;3367;48.714;8.994;2024-03-29T16:08:13;15.80;1.00
6662;DHT22;3367;48.714;8.994;2024-03-29T16:10:51;15.80;1.00
6662;DHT22;3367;48.714;8.994;2024-03-29T16:13:19;15.70;1.00
6662;DHT22;3367;48.714;8.994;2024-03-29T16:15:47;15.70;1.00
6662;DHT22;3367;48.714;8.994;2024-03-29T16:18:13;15.60;1.00
6662;DHT22;3367;48.714;8.994;2024-03-29T16:20:40;15.60;1.00
6662;DHT22;3367;48.714;8.994;2024-03-29T16:23:07;15.50;1.00
6662;DHT22;3367;48.714;8.994;2024-03-29T16:25:40;15.40;1.00
6662;DHT22;3367;48.714;8.994;2024-03-29T16:28:09;15.40;1.00
6662;DHT22;3367;48.714;8.994;2024-03-29T16:30:39;15.30;1.00
6662;DHT22;3367;48.714;8.994;2024-03-29T16:33:06;15.20;1.00
6662;DHT22;3367;48.714;8.994;2024-03-29T16:35:32;15.20;1.00
6662;DHT22;3367;48.714;8.994;2024-03-29T16:37:58;15.10;1.00